RYR61RR EGSS-LEAM
Flight info
| Callsign | RYR61RR |
|---|---|
| Flight time | 2h 39m |
| Altitude | 38000 |
| Route | NUGBO1S NUGBO M183 SILVA Q41 SAM N63 LELNA/N0444F390 DCT NOVAN DCT NENEM P152 PPN N10 CJN L27 BLN N865 ESILA ESILA2R |
| Aircraft | B38M/M-SADE3FGILRWY/SB1 |
Departure
| Time | 2026-04-21 12:44 |
|---|---|
| Airport | London Stansted Airport (EGSS) |
Arrival
| Time | 2026-04-21 15:23 |
|---|---|
| Airport | Almería Airport (LEAM) |
| Time | Latitude | Longitude | Altitude | Speed | Heading |
|---|---|---|---|---|---|
| 2026-04-21 12:27 | 51.88897 | 0.25310 | 362 ft | 0 kts | 43° |
| 2026-04-21 12:36 | 51.88889 | 0.25299 | 364 ft | 4 kts | 43° |
| 2026-04-21 12:36 | 51.88877 | 0.25280 | 360 ft | 3 kts | 43° |
| 2026-04-21 12:37 | 51.88860 | 0.25258 | 357 ft | 4 kts | 26° |
| 2026-04-21 12:37 | 51.88838 | 0.25253 | 363 ft | 4 kts | 330° |
| 2026-04-21 12:37 | 51.88820 | 0.25280 | 355 ft | 4 kts | 313° |
| 2026-04-21 12:37 | 51.88815 | 0.25289 | 364 ft | 1 kts | 313° |
| 2026-04-21 12:40 | 51.88823 | 0.25274 | 361 ft | 5 kts | 313° |
| 2026-04-21 12:40 | 51.88878 | 0.25179 | 355 ft | 18 kts | 313° |
| 2026-04-21 12:40 | 51.88964 | 0.24982 | 357 ft | 24 kts | 266° |
| 2026-04-21 12:40 | 51.88852 | 0.24791 | 355 ft | 25 kts | 223° |
| 2026-04-21 12:41 | 51.88720 | 0.24591 | 351 ft | 28 kts | 223° |
| 2026-04-21 12:41 | 51.88582 | 0.24385 | 351 ft | 22 kts | 223° |
| 2026-04-21 12:41 | 51.88463 | 0.24206 | 347 ft | 25 kts | 223° |
| 2026-04-21 12:41 | 51.88332 | 0.24009 | 351 ft | 26 kts | 223° |
| 2026-04-21 12:42 | 51.88192 | 0.23800 | 347 ft | 29 kts | 223° |
| 2026-04-21 12:42 | 51.88067 | 0.23615 | 346 ft | 23 kts | 222° |
| 2026-04-21 12:42 | 51.87945 | 0.23429 | 346 ft | 25 kts | 223° |
| 2026-04-21 12:42 | 51.87814 | 0.23231 | 343 ft | 27 kts | 223° |
| 2026-04-21 12:43 | 51.87743 | 0.22972 | 350 ft | 26 kts | 299° |
| 2026-04-21 12:43 | 51.87880 | 0.22775 | 334 ft | 28 kts | 313° |
| 2026-04-21 12:43 | 51.87985 | 0.22704 | 333 ft | 17 kts | 39° |
| 2026-04-21 12:43 | 51.88164 | 0.22978 | 335 ft | 67 kts | 43° |
| 2026-04-21 12:44 | 51.88659 | 0.23721 | 342 ft | 124 kts | 43° |
| 2026-04-21 12:44 | 51.89365 | 0.24778 | 643 ft | 143 kts | 45° |
| 2026-04-21 12:44 | 51.90126 | 0.25929 | 1249 ft | 152 kts | 46° |
| 2026-04-21 12:44 | 51.90893 | 0.27088 | 2041 ft | 151 kts | 47° |
| 2026-04-21 12:45 | 51.91697 | 0.28306 | 2550 ft | 168 kts | 46° |
| 2026-04-21 12:45 | 51.92833 | 0.29267 | 2852 ft | 205 kts | 18° |
| 2026-04-21 12:45 | 51.94346 | 0.29407 | 3338 ft | 235 kts | 353° |
| 2026-04-21 12:45 | 51.95900 | 0.28217 | 3852 ft | 265 kts | 323° |
| 2026-04-21 12:46 | 51.96934 | 0.25664 | 4527 ft | 281 kts | 288° |
| 2026-04-21 12:46 | 51.97281 | 0.22530 | 4838 ft | 285 kts | 280° |
| 2026-04-21 12:46 | 51.97587 | 0.19351 | 5045 ft | 286 kts | 280° |
| 2026-04-21 12:46 | 51.97912 | 0.16174 | 5960 ft | 285 kts | 281° |
| 2026-04-21 12:47 | 51.98250 | 0.12966 | 6811 ft | 293 kts | 281° |
| 2026-04-21 12:47 | 51.98599 | 0.09702 | 7717 ft | 294 kts | 281° |
| 2026-04-21 12:47 | 51.98877 | 0.06398 | 8613 ft | 299 kts | 269° |
| 2026-04-21 12:47 | 51.98549 | 0.03067 | 9539 ft | 300 kts | 257° |
| 2026-04-21 12:48 | 51.98126 | -0.00289 | 10360 ft | 306 kts | 257° |
| 2026-04-21 12:48 | 51.97693 | -0.03729 | 10966 ft | 320 kts | 257° |
| 2026-04-21 12:48 | 51.97229 | -0.07354 | 11419 ft | 335 kts | 257° |
| 2026-04-21 12:48 | 51.96742 | -0.11118 | 12006 ft | 346 kts | 257° |
| 2026-04-21 12:49 | 51.96246 | -0.14942 | 12842 ft | 345 kts | 257° |
| 2026-04-21 12:49 | 51.95748 | -0.18758 | 13647 ft | 348 kts | 258° |
| 2026-04-21 12:49 | 51.95247 | -0.22593 | 14385 ft | 349 kts | 258° |
| 2026-04-21 12:49 | 51.94735 | -0.26493 | 14911 ft | 356 kts | 257° |
| 2026-04-21 12:50 | 51.94218 | -0.30432 | 15523 ft | 359 kts | 257° |
| 2026-04-21 12:50 | 51.93692 | -0.34416 | 16191 ft | 362 kts | 257° |
| 2026-04-21 12:50 | 51.93165 | -0.38405 | 16927 ft | 363 kts | 257° |
| 2026-04-21 12:50 | 51.92633 | -0.42409 | 17604 ft | 366 kts | 257° |
| 2026-04-21 12:51 | 51.92094 | -0.46471 | 18121 ft | 372 kts | 257° |
| 2026-04-21 12:51 | 51.91544 | -0.50599 | 18656 ft | 376 kts | 257° |
| 2026-04-21 12:51 | 51.90993 | -0.54726 | 19250 ft | 376 kts | 258° |
| 2026-04-21 12:51 | 51.90440 | -0.58852 | 19882 ft | 373 kts | 259° |
| 2026-04-21 12:52 | 51.89887 | -0.62961 | 20459 ft | 374 kts | 259° |
| 2026-04-21 12:52 | 51.89331 | -0.67075 | 21016 ft | 373 kts | 260° |
| 2026-04-21 12:52 | 51.88777 | -0.71171 | 21599 ft | 372 kts | 261° |
| 2026-04-21 12:52 | 51.88224 | -0.75257 | 22125 ft | 373 kts | 261° |
| 2026-04-21 12:53 | 51.87666 | -0.79356 | 22613 ft | 373 kts | 261° |
| 2026-04-21 12:53 | 51.87106 | -0.83464 | 23081 ft | 374 kts | 261° |
| 2026-04-21 12:53 | 51.86551 | -0.87531 | 23529 ft | 375 kts | 261° |
| 2026-04-21 12:53 | 51.85978 | -0.91649 | 23957 ft | 377 kts | 259° |
| 2026-04-21 12:54 | 51.84931 | -0.95571 | 24330 ft | 385 kts | 241° |
| 2026-04-21 12:54 | 51.83121 | -0.98815 | 24697 ft | 396 kts | 224° |
| 2026-04-21 12:54 | 51.80704 | -1.01054 | 25110 ft | 407 kts | 207° |
| 2026-04-21 12:54 | 51.77917 | -1.02185 | 25396 ft | 418 kts | 195° |
| 2026-04-21 12:55 | 51.75047 | -1.02979 | 25643 ft | 420 kts | 196° |
| 2026-04-21 12:55 | 51.72154 | -1.03763 | 25948 ft | 422 kts | 196° |
| 2026-04-21 12:55 | 51.69253 | -1.04524 | 26232 ft | 424 kts | 196° |
| 2026-04-21 12:55 | 51.66337 | -1.05278 | 26515 ft | 425 kts | 196° |
| 2026-04-21 12:56 | 51.63411 | -1.06029 | 26791 ft | 427 kts | 196° |
| 2026-04-21 12:56 | 51.60522 | -1.07005 | 27052 ft | 421 kts | 203° |
| 2026-04-21 12:56 | 51.57684 | -1.08263 | 27308 ft | 424 kts | 202° |
| 2026-04-21 12:56 | 51.54827 | -1.09478 | 27567 ft | 426 kts | 202° |
| 2026-04-21 12:57 | 51.51950 | -1.10675 | 27822 ft | 428 kts | 202° |
| 2026-04-21 12:57 | 51.49061 | -1.11865 | 28072 ft | 429 kts | 202° |
| 2026-04-21 12:57 | 51.46182 | -1.13097 | 28301 ft | 429 kts | 203° |
| 2026-04-21 12:57 | 51.43291 | -1.14336 | 28530 ft | 431 kts | 202° |
| 2026-04-21 12:58 | 51.40390 | -1.15575 | 28756 ft | 432 kts | 202° |
| 2026-04-21 12:58 | 51.37480 | -1.16815 | 28978 ft | 433 kts | 202° |
| 2026-04-21 12:58 | 51.34566 | -1.18055 | 29206 ft | 434 kts | 202° |
| 2026-04-21 12:58 | 51.31638 | -1.19298 | 29421 ft | 435 kts | 202° |
| 2026-04-21 12:59 | 51.28714 | -1.20539 | 29689 ft | 436 kts | 202° |
| 2026-04-21 12:59 | 51.25780 | -1.21782 | 29910 ft | 437 kts | 202° |
| 2026-04-21 12:59 | 51.22832 | -1.23029 | 30151 ft | 439 kts | 202° |
| 2026-04-21 12:59 | 51.19876 | -1.24278 | 30389 ft | 440 kts | 202° |
| 2026-04-21 13:00 | 51.16911 | -1.25530 | 30597 ft | 441 kts | 202° |
| 2026-04-21 13:00 | 51.13946 | -1.26779 | 30826 ft | 442 kts | 202° |
| 2026-04-21 13:00 | 51.10958 | -1.28036 | 31030 ft | 444 kts | 202° |
| 2026-04-21 13:00 | 51.07967 | -1.29294 | 31267 ft | 445 kts | 202° |
| 2026-04-21 13:01 | 51.04970 | -1.30552 | 31504 ft | 447 kts | 202° |
| 2026-04-21 13:01 | 51.01959 | -1.31814 | 31752 ft | 448 kts | 202° |
| 2026-04-21 13:01 | 50.98975 | -1.33063 | 32005 ft | 450 kts | 202° |
| 2026-04-21 13:02 | 50.93131 | -1.36441 | 32468 ft | 440 kts | 215° |
| 2026-04-21 13:02 | 50.90390 | -1.38642 | 32660 ft | 444 kts | 213° |
| 2026-04-21 13:02 | 50.84889 | -1.43006 | 33241 ft | 444 kts | 213° |
| 2026-04-21 13:03 | 50.82126 | -1.45205 | 33565 ft | 445 kts | 213° |
| 2026-04-21 13:03 | 50.79356 | -1.47408 | 33896 ft | 446 kts | 213° |
| 2026-04-21 13:03 | 50.76585 | -1.49609 | 34296 ft | 445 kts | 213° |
| 2026-04-21 13:03 | 50.73823 | -1.51800 | 34599 ft | 444 kts | 212° |
| 2026-04-21 13:04 | 50.71064 | -1.53985 | 34850 ft | 445 kts | 212° |
| 2026-04-21 13:04 | 50.68296 | -1.56175 | 35094 ft | 445 kts | 212° |
| 2026-04-21 13:04 | 50.65525 | -1.58364 | 35345 ft | 445 kts | 212° |
| 2026-04-21 13:04 | 50.62753 | -1.60552 | 35559 ft | 446 kts | 212° |
| 2026-04-21 13:05 | 50.59983 | -1.62735 | 35830 ft | 445 kts | 211° |
| 2026-04-21 13:05 | 50.57216 | -1.64912 | 36055 ft | 445 kts | 211° |
| 2026-04-21 13:05 | 50.54444 | -1.67091 | 36268 ft | 445 kts | 211° |
| 2026-04-21 13:05 | 50.51675 | -1.69265 | 36483 ft | 445 kts | 211° |
| 2026-04-21 13:06 | 50.48902 | -1.71438 | 36677 ft | 445 kts | 211° |
| 2026-04-21 13:06 | 50.46130 | -1.73608 | 36876 ft | 446 kts | 211° |
| 2026-04-21 13:06 | 50.43352 | -1.75781 | 37062 ft | 446 kts | 211° |
| 2026-04-21 13:06 | 50.40579 | -1.77945 | 37226 ft | 446 kts | 211° |
| 2026-04-21 13:07 | 50.37801 | -1.80111 | 37438 ft | 445 kts | 210° |
| 2026-04-21 13:07 | 50.35030 | -1.82269 | 37632 ft | 445 kts | 210° |
| 2026-04-21 13:07 | 50.32256 | -1.84427 | 37783 ft | 445 kts | 210° |
| 2026-04-21 13:07 | 50.29485 | -1.86580 | 37992 ft | 444 kts | 210° |
| 2026-04-21 13:08 | 50.26719 | -1.88725 | 38175 ft | 443 kts | 210° |
| 2026-04-21 13:08 | 50.23952 | -1.90869 | 38268 ft | 445 kts | 210° |
| 2026-04-21 13:08 | 50.18419 | -1.95147 | 38238 ft | 443 kts | 210° |
| 2026-04-21 13:09 | 50.12902 | -1.99402 | 38234 ft | 442 kts | 210° |
| 2026-04-21 13:09 | 50.07387 | -2.03643 | 38238 ft | 442 kts | 210° |
| 2026-04-21 13:10 | 50.01874 | -2.07873 | 38230 ft | 442 kts | 210° |
| 2026-04-21 13:10 | 49.96212 | -2.11615 | 38239 ft | 446 kts | 199° |
| 2026-04-21 13:11 | 49.90306 | -2.14364 | 38205 ft | 445 kts | 200° |
| 2026-04-21 13:11 | 49.84366 | -2.17141 | 38212 ft | 446 kts | 200° |
| 2026-04-21 13:12 | 49.78425 | -2.19908 | 38211 ft | 446 kts | 201° |
| 2026-04-21 13:12 | 49.72485 | -2.22667 | 38199 ft | 446 kts | 200° |
| 2026-04-21 13:13 | 49.66549 | -2.25417 | 38198 ft | 445 kts | 200° |
| 2026-04-21 13:13 | 49.60639 | -2.28148 | 38208 ft | 442 kts | 200° |
| 2026-04-21 13:14 | 49.54740 | -2.30867 | 38206 ft | 442 kts | 200° |
| 2026-04-21 13:14 | 49.48843 | -2.33579 | 38154 ft | 442 kts | 200° |
| 2026-04-21 13:15 | 49.42950 | -2.36281 | 38163 ft | 442 kts | 200° |
| 2026-04-21 13:15 | 49.37064 | -2.38974 | 38163 ft | 441 kts | 200° |
| 2026-04-21 13:16 | 49.31183 | -2.41658 | 38163 ft | 441 kts | 200° |
| 2026-04-21 13:16 | 49.25292 | -2.44339 | 38159 ft | 441 kts | 200° |
| 2026-04-21 13:17 | 49.19405 | -2.47012 | 38160 ft | 441 kts | 200° |
| 2026-04-21 13:17 | 49.13520 | -2.49678 | 38156 ft | 441 kts | 200° |
| 2026-04-21 13:18 | 49.07639 | -2.52335 | 38161 ft | 441 kts | 200° |
| 2026-04-21 13:18 | 49.01750 | -2.54990 | 38154 ft | 441 kts | 200° |
| 2026-04-21 13:19 | 48.95861 | -2.57637 | 38153 ft | 441 kts | 200° |
| 2026-04-21 13:19 | 48.89971 | -2.60279 | 38154 ft | 441 kts | 200° |
| 2026-04-21 13:20 | 48.84088 | -2.62910 | 38137 ft | 441 kts | 200° |
| 2026-04-21 13:20 | 48.78214 | -2.65532 | 38138 ft | 439 kts | 200° |
| 2026-04-21 13:21 | 48.72388 | -2.68126 | 38138 ft | 439 kts | 200° |
| 2026-04-21 13:21 | 48.66520 | -2.70732 | 38129 ft | 439 kts | 200° |
| 2026-04-21 13:22 | 48.60653 | -2.73332 | 38114 ft | 439 kts | 200° |
| 2026-04-21 13:22 | 48.54792 | -2.75922 | 38122 ft | 439 kts | 200° |
| 2026-04-21 13:23 | 48.49871 | -2.78093 | 38110 ft | 439 kts | 200° |
| 2026-04-21 13:23 | 48.43054 | -2.81091 | 38102 ft | 439 kts | 200° |
| 2026-04-21 13:24 | 48.38133 | -2.83251 | 38342 ft | 439 kts | 200° |
| 2026-04-21 13:24 | 48.35242 | -2.84517 | 38533 ft | 439 kts | 200° |
| 2026-04-21 13:24 | 48.32309 | -2.85801 | 38692 ft | 439 kts | 200° |
| 2026-04-21 13:25 | 48.29367 | -2.87087 | 38834 ft | 440 kts | 200° |
| 2026-04-21 13:25 | 48.26434 | -2.88368 | 38949 ft | 440 kts | 200° |
| 2026-04-21 13:25 | 48.23491 | -2.89651 | 39056 ft | 440 kts | 200° |
| 2026-04-21 13:25 | 48.20546 | -2.90934 | 39094 ft | 441 kts | 200° |
| 2026-04-21 13:26 | 48.14673 | -2.93488 | 39071 ft | 437 kts | 200° |
| 2026-04-21 13:26 | 48.08824 | -2.96024 | 39061 ft | 438 kts | 200° |
| 2026-04-21 13:27 | 48.02974 | -2.98556 | 39064 ft | 437 kts | 199° |
| 2026-04-21 13:27 | 47.97158 | -3.01067 | 39045 ft | 434 kts | 200° |
| 2026-04-21 13:28 | 47.91360 | -3.03564 | 39045 ft | 433 kts | 200° |
| 2026-04-21 13:28 | 47.85580 | -3.06048 | 39042 ft | 433 kts | 199° |
| 2026-04-21 13:29 | 47.79790 | -3.08530 | 39044 ft | 433 kts | 199° |
| 2026-04-21 13:29 | 47.74001 | -3.11005 | 39038 ft | 432 kts | 199° |
| 2026-04-21 13:30 | 47.68234 | -3.13466 | 39040 ft | 431 kts | 199° |
| 2026-04-21 13:30 | 47.62472 | -3.15920 | 39036 ft | 431 kts | 199° |
| 2026-04-21 13:31 | 47.56711 | -3.18366 | 39031 ft | 431 kts | 199° |
| 2026-04-21 13:31 | 47.50948 | -3.20809 | 39028 ft | 430 kts | 199° |
| 2026-04-21 13:32 | 47.45209 | -3.23235 | 39021 ft | 429 kts | 199° |
| 2026-04-21 13:32 | 47.39455 | -3.25662 | 39017 ft | 429 kts | 199° |
| 2026-04-21 13:33 | 47.33750 | -3.28064 | 39004 ft | 429 kts | 199° |
| 2026-04-21 13:33 | 47.27981 | -3.30486 | 39012 ft | 427 kts | 199° |
| 2026-04-21 13:34 | 47.22281 | -3.32875 | 39009 ft | 424 kts | 199° |
| 2026-04-21 13:34 | 47.16607 | -3.35247 | 39008 ft | 425 kts | 199° |
| 2026-04-21 13:35 | 47.10926 | -3.37617 | 39002 ft | 423 kts | 199° |
| 2026-04-21 13:35 | 47.05256 | -3.39978 | 39007 ft | 423 kts | 199° |
| 2026-04-21 13:36 | 46.99594 | -3.42329 | 38996 ft | 423 kts | 199° |
| 2026-04-21 13:36 | 46.93925 | -3.44677 | 38997 ft | 423 kts | 199° |
| 2026-04-21 13:37 | 46.88269 | -3.47016 | 38992 ft | 422 kts | 199° |
| 2026-04-21 13:37 | 46.82626 | -3.49345 | 38987 ft | 421 kts | 199° |
| 2026-04-21 13:38 | 46.76978 | -3.51670 | 38998 ft | 422 kts | 199° |
| 2026-04-21 13:38 | 46.71331 | -3.53989 | 38982 ft | 421 kts | 198° |
| 2026-04-21 13:39 | 46.65719 | -3.56289 | 38982 ft | 421 kts | 198° |
| 2026-04-21 13:39 | 46.60075 | -3.58599 | 38977 ft | 422 kts | 199° |
| 2026-04-21 13:40 | 46.54431 | -3.60904 | 38969 ft | 421 kts | 199° |
| 2026-04-21 13:40 | 46.48782 | -3.63206 | 38969 ft | 422 kts | 199° |
| 2026-04-21 13:41 | 46.43158 | -3.65492 | 38962 ft | 419 kts | 198° |
| 2026-04-21 13:41 | 46.37530 | -3.67775 | 38967 ft | 420 kts | 198° |
| 2026-04-21 13:42 | 46.31818 | -3.69392 | 38919 ft | 424 kts | 179° |
| 2026-04-21 13:42 | 46.25920 | -3.68209 | 38927 ft | 430 kts | 175° |
| 2026-04-21 13:43 | 46.20019 | -3.66833 | 38948 ft | 430 kts | 174° |
| 2026-04-21 13:43 | 46.14114 | -3.65372 | 38947 ft | 431 kts | 174° |
| 2026-04-21 13:44 | 46.08210 | -3.63898 | 38935 ft | 430 kts | 174° |
| 2026-04-21 13:44 | 46.02355 | -3.62439 | 38928 ft | 430 kts | 174° |
| 2026-04-21 13:45 | 45.96414 | -3.60960 | 38934 ft | 431 kts | 174° |
| 2026-04-21 13:45 | 45.90550 | -3.59505 | 38913 ft | 430 kts | 174° |
| 2026-04-21 13:46 | 45.84658 | -3.58046 | 38919 ft | 430 kts | 174° |
| 2026-04-21 13:46 | 45.78768 | -3.56590 | 38916 ft | 430 kts | 174° |
| 2026-04-21 13:47 | 45.72873 | -3.55136 | 38912 ft | 429 kts | 174° |
| 2026-04-21 13:47 | 45.66986 | -3.53688 | 38909 ft | 429 kts | 174° |
| 2026-04-21 13:48 | 45.61099 | -3.52242 | 38904 ft | 429 kts | 174° |
| 2026-04-21 13:48 | 45.55218 | -3.50801 | 38892 ft | 429 kts | 174° |
| 2026-04-21 13:49 | 45.49319 | -3.49359 | 38906 ft | 432 kts | 174° |
| 2026-04-21 13:49 | 45.43396 | -3.47913 | 38891 ft | 431 kts | 174° |
| 2026-04-21 13:50 | 45.37489 | -3.46476 | 38889 ft | 431 kts | 174° |
| 2026-04-21 13:50 | 45.31571 | -3.45037 | 38869 ft | 431 kts | 174° |
| 2026-04-21 13:51 | 45.25661 | -3.43605 | 38885 ft | 430 kts | 174° |
| 2026-04-21 13:51 | 45.19767 | -3.42179 | 38872 ft | 430 kts | 174° |
| 2026-04-21 13:52 | 45.13895 | -3.40762 | 38864 ft | 431 kts | 173° |
| 2026-04-21 13:52 | 45.07952 | -3.39330 | 38858 ft | 430 kts | 174° |
| 2026-04-21 13:53 | 45.02050 | -3.37911 | 38853 ft | 430 kts | 173° |
| 2026-04-21 13:53 | 44.96188 | -3.36505 | 38858 ft | 430 kts | 173° |
| 2026-04-21 13:54 | 44.90282 | -3.35091 | 38853 ft | 430 kts | 173° |
| 2026-04-21 13:54 | 44.84382 | -3.33681 | 38856 ft | 430 kts | 173° |
| 2026-04-21 13:55 | 44.78489 | -3.32276 | 38849 ft | 430 kts | 173° |
| 2026-04-21 13:55 | 44.72590 | -3.30873 | 38848 ft | 430 kts | 173° |
| 2026-04-21 13:56 | 44.66688 | -3.29471 | 38839 ft | 430 kts | 173° |
| 2026-04-21 13:56 | 44.60787 | -3.28073 | 38837 ft | 430 kts | 174° |
| 2026-04-21 13:57 | 44.54895 | -3.26680 | 38828 ft | 429 kts | 174° |
| 2026-04-21 13:57 | 44.49007 | -3.25291 | 38824 ft | 429 kts | 174° |
| 2026-04-21 13:58 | 44.43121 | -3.23905 | 38828 ft | 429 kts | 174° |
| 2026-04-21 13:58 | 44.37236 | -3.22521 | 38813 ft | 429 kts | 174° |
| 2026-04-21 13:59 | 44.31365 | -3.21145 | 38816 ft | 428 kts | 174° |
| 2026-04-21 13:59 | 44.25491 | -3.19769 | 38814 ft | 428 kts | 174° |
| 2026-04-21 14:00 | 44.19619 | -3.18397 | 38819 ft | 428 kts | 174° |
| 2026-04-21 14:00 | 44.13758 | -3.17030 | 38813 ft | 427 kts | 174° |
| 2026-04-21 14:01 | 44.07941 | -3.15659 | 38806 ft | 428 kts | 171° |
| 2026-04-21 14:01 | 44.05124 | -3.14283 | 38783 ft | 434 kts | 155° |
| 2026-04-21 14:01 | 44.02624 | -3.11909 | 38817 ft | 439 kts | 146° |
| 2026-04-21 14:02 | 43.97780 | -3.06660 | 38794 ft | 442 kts | 146° |
| 2026-04-21 14:03 | 43.90588 | -2.98629 | 38799 ft | 444 kts | 145° |
| 2026-04-21 14:03 | 43.85790 | -2.93249 | 38792 ft | 443 kts | 145° |
| 2026-04-21 14:04 | 43.80999 | -2.87884 | 38796 ft | 443 kts | 145° |
| 2026-04-21 14:04 | 43.76200 | -2.82523 | 38785 ft | 443 kts | 145° |
| 2026-04-21 14:05 | 43.71412 | -2.77177 | 38783 ft | 442 kts | 145° |
| 2026-04-21 14:05 | 43.66623 | -2.71842 | 38784 ft | 442 kts | 145° |
| 2026-04-21 14:06 | 43.61827 | -2.66515 | 38766 ft | 442 kts | 145° |
| 2026-04-21 14:06 | 43.57020 | -2.61185 | 38778 ft | 443 kts | 145° |
| 2026-04-21 14:07 | 43.52214 | -2.55868 | 38781 ft | 442 kts | 145° |
| 2026-04-21 14:07 | 43.47416 | -2.50570 | 38774 ft | 442 kts | 145° |
| 2026-04-21 14:08 | 43.42612 | -2.45278 | 38768 ft | 442 kts | 145° |
| 2026-04-21 14:08 | 43.37810 | -2.40000 | 38779 ft | 442 kts | 146° |
| 2026-04-21 14:09 | 43.33008 | -2.34732 | 38781 ft | 441 kts | 146° |
| 2026-04-21 14:09 | 43.28215 | -2.29483 | 38776 ft | 441 kts | 146° |
| 2026-04-21 14:10 | 43.23401 | -2.24224 | 38795 ft | 444 kts | 145° |
| 2026-04-21 14:10 | 43.18570 | -2.18957 | 38784 ft | 443 kts | 145° |
| 2026-04-21 14:11 | 43.14559 | -2.14593 | 38787 ft | 443 kts | 145° |
| 2026-04-21 14:11 | 43.09735 | -2.09352 | 38802 ft | 443 kts | 146° |
| 2026-04-21 14:12 | 43.04898 | -2.04114 | 38790 ft | 443 kts | 145° |
| 2026-04-21 14:12 | 42.99288 | -1.98052 | 38784 ft | 442 kts | 145° |
| 2026-04-21 14:13 | 42.95243 | -1.93686 | 38820 ft | 443 kts | 146° |
| 2026-04-21 14:13 | 42.90410 | -1.88481 | 38802 ft | 443 kts | 145° |
| 2026-04-21 14:14 | 42.85557 | -1.83260 | 38832 ft | 445 kts | 145° |
| 2026-04-21 14:14 | 42.80701 | -1.78046 | 38830 ft | 445 kts | 145° |
| 2026-04-21 14:15 | 42.75425 | -1.74010 | 38805 ft | 429 kts | 171° |
| 2026-04-21 14:15 | 42.72497 | -1.73554 | 38836 ft | 422 kts | 185° |
| 2026-04-21 14:15 | 42.69625 | -1.73973 | 38808 ft | 420 kts | 197° |
| 2026-04-21 14:16 | 42.64189 | -1.76703 | 38827 ft | 418 kts | 206° |
| 2026-04-21 14:16 | 42.58917 | -1.80003 | 38813 ft | 417 kts | 207° |
| 2026-04-21 14:17 | 42.53702 | -1.83437 | 38809 ft | 417 kts | 208° |
| 2026-04-21 14:17 | 42.48507 | -1.86905 | 38802 ft | 417 kts | 208° |
| 2026-04-21 14:18 | 42.43305 | -1.90379 | 38796 ft | 417 kts | 208° |
| 2026-04-21 14:18 | 42.38118 | -1.93836 | 38787 ft | 415 kts | 208° |
| 2026-04-21 14:19 | 42.32930 | -1.97293 | 38797 ft | 416 kts | 208° |
| 2026-04-21 14:19 | 42.27739 | -2.00747 | 38801 ft | 416 kts | 208° |
| 2026-04-21 14:20 | 42.22544 | -2.04186 | 38807 ft | 416 kts | 208° |
| 2026-04-21 14:20 | 42.17350 | -2.07620 | 38803 ft | 416 kts | 208° |
| 2026-04-21 14:21 | 42.12149 | -2.11054 | 38814 ft | 417 kts | 208° |
| 2026-04-21 14:21 | 42.06948 | -2.14484 | 38815 ft | 416 kts | 207° |
| 2026-04-21 14:22 | 42.01780 | -2.17884 | 38832 ft | 417 kts | 208° |
| 2026-04-21 14:22 | 41.96571 | -2.21306 | 38818 ft | 416 kts | 208° |
| 2026-04-21 14:23 | 41.91366 | -2.24718 | 38834 ft | 416 kts | 207° |
| 2026-04-21 14:23 | 41.86161 | -2.28125 | 38829 ft | 416 kts | 207° |
| 2026-04-21 14:24 | 41.80959 | -2.31524 | 38836 ft | 416 kts | 207° |
| 2026-04-21 14:24 | 41.75763 | -2.34912 | 38836 ft | 416 kts | 207° |
| 2026-04-21 14:25 | 41.70560 | -2.38298 | 38830 ft | 415 kts | 207° |
| 2026-04-21 14:25 | 41.65361 | -2.41676 | 38829 ft | 415 kts | 207° |
| 2026-04-21 14:26 | 41.60158 | -2.45051 | 38831 ft | 415 kts | 207° |
| 2026-04-21 14:26 | 41.54960 | -2.48416 | 38835 ft | 416 kts | 207° |
| 2026-04-21 14:27 | 41.49752 | -2.51782 | 38832 ft | 415 kts | 207° |
| 2026-04-21 14:27 | 41.44553 | -2.55135 | 38836 ft | 415 kts | 207° |
| 2026-04-21 14:28 | 41.39346 | -2.58488 | 38838 ft | 415 kts | 207° |
| 2026-04-21 14:28 | 41.34118 | -2.61762 | 38834 ft | 416 kts | 200° |
| 2026-04-21 14:28 | 41.31277 | -2.62510 | 38829 ft | 419 kts | 184° |
| 2026-04-21 14:29 | 41.28349 | -2.62403 | 38858 ft | 423 kts | 181° |
| 2026-04-21 14:29 | 41.22487 | -2.62046 | 38859 ft | 425 kts | 180° |
| 2026-04-21 14:30 | 41.16580 | -2.61561 | 38854 ft | 425 kts | 180° |
| 2026-04-21 14:30 | 41.10676 | -2.61040 | 38858 ft | 425 kts | 179° |
| 2026-04-21 14:31 | 41.04772 | -2.60516 | 38861 ft | 425 kts | 180° |
| 2026-04-21 14:31 | 40.98867 | -2.59990 | 38862 ft | 425 kts | 180° |
| 2026-04-21 14:32 | 40.92972 | -2.59457 | 38860 ft | 425 kts | 180° |
| 2026-04-21 14:32 | 40.87065 | -2.58923 | 38847 ft | 425 kts | 180° |
| 2026-04-21 14:33 | 40.81160 | -2.58392 | 38864 ft | 426 kts | 179° |
| 2026-04-21 14:33 | 40.75254 | -2.57860 | 38864 ft | 425 kts | 180° |
| 2026-04-21 14:34 | 40.69350 | -2.57331 | 38862 ft | 425 kts | 179° |
| 2026-04-21 14:34 | 40.63442 | -2.56801 | 38867 ft | 426 kts | 180° |
| 2026-04-21 14:35 | 40.57535 | -2.56273 | 38860 ft | 425 kts | 179° |
| 2026-04-21 14:35 | 40.51638 | -2.55747 | 38855 ft | 425 kts | 180° |
| 2026-04-21 14:36 | 40.45732 | -2.55220 | 38859 ft | 425 kts | 180° |
| 2026-04-21 14:36 | 40.39822 | -2.54701 | 38857 ft | 425 kts | 181° |
| 2026-04-21 14:36 | 40.36918 | -2.55016 | 38837 ft | 416 kts | 198° |
| 2026-04-21 14:37 | 40.34182 | -2.56208 | 38874 ft | 415 kts | 201° |
| 2026-04-21 14:37 | 40.28732 | -2.58774 | 38864 ft | 416 kts | 203° |
| 2026-04-21 14:38 | 40.23312 | -2.61450 | 38866 ft | 416 kts | 203° |
| 2026-04-21 14:38 | 40.17904 | -2.64155 | 38858 ft | 416 kts | 203° |
| 2026-04-21 14:39 | 40.12502 | -2.66858 | 38859 ft | 416 kts | 204° |
| 2026-04-21 14:39 | 40.07105 | -2.69555 | 38864 ft | 415 kts | 203° |
| 2026-04-21 14:40 | 40.01714 | -2.72244 | 38864 ft | 415 kts | 203° |
| 2026-04-21 14:40 | 39.96324 | -2.74928 | 38861 ft | 414 kts | 204° |
| 2026-04-21 14:41 | 39.90949 | -2.77600 | 38867 ft | 414 kts | 204° |
| 2026-04-21 14:41 | 39.85575 | -2.80266 | 38865 ft | 413 kts | 204° |
| 2026-04-21 14:42 | 39.80201 | -2.82929 | 38861 ft | 413 kts | 204° |
| 2026-04-21 14:42 | 39.74828 | -2.85586 | 38871 ft | 412 kts | 204° |
| 2026-04-21 14:43 | 39.69498 | -2.88218 | 38855 ft | 409 kts | 204° |
| 2026-04-21 14:43 | 39.64175 | -2.90842 | 38855 ft | 409 kts | 204° |
| 2026-04-21 14:44 | 39.58847 | -2.93467 | 38851 ft | 409 kts | 204° |
| 2026-04-21 14:44 | 39.53562 | -2.96071 | 38839 ft | 409 kts | 204° |
| 2026-04-21 14:45 | 39.48255 | -2.98683 | 38841 ft | 407 kts | 204° |
| 2026-04-21 14:45 | 39.42963 | -3.01282 | 38844 ft | 407 kts | 204° |
| 2026-04-21 14:46 | 39.37627 | -3.03890 | 38843 ft | 407 kts | 204° |
| 2026-04-21 14:46 | 39.32362 | -3.06457 | 38855 ft | 406 kts | 204° |
| 2026-04-21 14:47 | 39.27090 | -3.09022 | 38835 ft | 404 kts | 204° |
| 2026-04-21 14:47 | 39.21824 | -3.11580 | 38838 ft | 404 kts | 204° |
| 2026-04-21 14:48 | 39.16557 | -3.14135 | 38840 ft | 404 kts | 204° |
| 2026-04-21 14:48 | 39.11290 | -3.16686 | 38838 ft | 404 kts | 204° |
| 2026-04-21 14:49 | 39.06026 | -3.19230 | 38833 ft | 404 kts | 204° |
| 2026-04-21 14:49 | 39.00761 | -3.21772 | 38837 ft | 404 kts | 204° |
| 2026-04-21 14:50 | 38.96350 | -3.23897 | 38841 ft | 404 kts | 204° |
| 2026-04-21 14:50 | 38.90231 | -3.26840 | 38840 ft | 404 kts | 204° |
| 2026-04-21 14:51 | 38.84961 | -3.29371 | 38844 ft | 404 kts | 204° |
| 2026-04-21 14:51 | 38.79693 | -3.31897 | 38845 ft | 404 kts | 204° |
| 2026-04-21 14:52 | 38.74428 | -3.34417 | 38852 ft | 404 kts | 204° |
| 2026-04-21 14:52 | 38.69149 | -3.36900 | 38853 ft | 405 kts | 200° |
| 2026-04-21 14:52 | 38.66362 | -3.37563 | 38844 ft | 412 kts | 187° |
| 2026-04-21 14:53 | 38.63483 | -3.37335 | 38845 ft | 420 kts | 174° |
| 2026-04-21 14:53 | 38.57833 | -3.35063 | 38848 ft | 427 kts | 168° |
| 2026-04-21 14:54 | 38.52156 | -3.32827 | 38865 ft | 427 kts | 169° |
| 2026-04-21 14:54 | 38.46479 | -3.30635 | 38585 ft | 425 kts | 169° |
| 2026-04-21 14:54 | 38.43623 | -3.29545 | 37519 ft | 432 kts | 169° |
| 2026-04-21 14:55 | 38.40739 | -3.28440 | 36909 ft | 430 kts | 169° |
| 2026-04-21 14:55 | 38.37910 | -3.27347 | 36698 ft | 419 kts | 169° |
| 2026-04-21 14:55 | 38.35166 | -3.26288 | 36532 ft | 407 kts | 169° |
| 2026-04-21 14:55 | 38.32482 | -3.25254 | 36219 ft | 400 kts | 169° |
| 2026-04-21 14:56 | 38.29827 | -3.24237 | 35731 ft | 398 kts | 169° |
| 2026-04-21 14:56 | 38.27174 | -3.23225 | 35178 ft | 398 kts | 169° |
| 2026-04-21 14:56 | 38.24529 | -3.22216 | 34664 ft | 397 kts | 169° |
| 2026-04-21 14:56 | 38.21884 | -3.21206 | 34199 ft | 395 kts | 169° |
| 2026-04-21 14:57 | 38.19259 | -3.20205 | 33712 ft | 394 kts | 168° |
| 2026-04-21 14:57 | 38.16677 | -3.19221 | 33202 ft | 392 kts | 168° |
| 2026-04-21 14:57 | 38.14075 | -3.18231 | 32714 ft | 389 kts | 168° |
| 2026-04-21 14:57 | 38.11490 | -3.17247 | 32269 ft | 387 kts | 168° |
| 2026-04-21 14:58 | 38.08922 | -3.16270 | 31837 ft | 384 kts | 168° |
| 2026-04-21 14:58 | 38.06372 | -3.15301 | 31407 ft | 381 kts | 167° |
| 2026-04-21 14:58 | 38.03843 | -3.14341 | 30972 ft | 379 kts | 167° |
| 2026-04-21 14:58 | 38.01326 | -3.13386 | 30547 ft | 377 kts | 167° |
| 2026-04-21 14:59 | 37.98821 | -3.12436 | 30136 ft | 375 kts | 167° |
| 2026-04-21 14:59 | 37.97164 | -3.11808 | 29843 ft | 374 kts | 167° |
| 2026-04-21 14:59 | 37.94677 | -3.10868 | 29362 ft | 372 kts | 167° |
| 2026-04-21 14:59 | 37.92169 | -3.09919 | 28937 ft | 369 kts | 167° |
| 2026-04-21 15:00 | 37.89753 | -3.09005 | 28535 ft | 366 kts | 167° |
| 2026-04-21 15:00 | 37.87326 | -3.08088 | 28150 ft | 363 kts | 167° |
| 2026-04-21 15:00 | 37.84882 | -3.07165 | 27760 ft | 360 kts | 167° |
| 2026-04-21 15:00 | 37.82517 | -3.06272 | 27370 ft | 358 kts | 167° |
| 2026-04-21 15:01 | 37.80142 | -3.05377 | 27010 ft | 355 kts | 168° |
| 2026-04-21 15:01 | 37.77774 | -3.04484 | 26610 ft | 355 kts | 167° |
| 2026-04-21 15:01 | 37.75418 | -3.03597 | 26239 ft | 353 kts | 168° |
| 2026-04-21 15:01 | 37.73071 | -3.02714 | 25869 ft | 351 kts | 167° |
| 2026-04-21 15:02 | 37.70736 | -3.01837 | 25508 ft | 349 kts | 167° |
| 2026-04-21 15:02 | 37.68414 | -3.00965 | 25148 ft | 347 kts | 167° |
| 2026-04-21 15:02 | 37.66103 | -3.00097 | 24775 ft | 346 kts | 167° |
| 2026-04-21 15:02 | 37.63799 | -2.99232 | 24423 ft | 345 kts | 167° |
| 2026-04-21 15:03 | 37.61503 | -2.98372 | 24061 ft | 344 kts | 167° |
| 2026-04-21 15:03 | 37.59219 | -2.97516 | 23706 ft | 343 kts | 167° |
| 2026-04-21 15:03 | 37.56936 | -2.96661 | 23332 ft | 342 kts | 167° |
| 2026-04-21 15:03 | 37.54661 | -2.95810 | 22916 ft | 340 kts | 167° |
| 2026-04-21 15:04 | 37.52404 | -2.94966 | 22556 ft | 337 kts | 167° |
| 2026-04-21 15:04 | 37.50162 | -2.94129 | 22200 ft | 335 kts | 167° |
| 2026-04-21 15:04 | 37.47938 | -2.93298 | 21865 ft | 332 kts | 167° |
| 2026-04-21 15:04 | 37.45738 | -2.92476 | 21515 ft | 329 kts | 167° |
| 2026-04-21 15:05 | 37.43553 | -2.91660 | 21179 ft | 326 kts | 167° |
| 2026-04-21 15:05 | 37.39239 | -2.90052 | 20543 ft | 321 kts | 167° |
| 2026-04-21 15:05 | 37.37105 | -2.89257 | 20159 ft | 318 kts | 167° |
| 2026-04-21 15:06 | 37.35005 | -2.88475 | 19900 ft | 312 kts | 167° |
| 2026-04-21 15:06 | 37.32930 | -2.87703 | 19593 ft | 310 kts | 167° |
| 2026-04-21 15:06 | 37.30866 | -2.86936 | 19267 ft | 309 kts | 167° |
| 2026-04-21 15:06 | 37.28809 | -2.86172 | 18950 ft | 308 kts | 167° |
| 2026-04-21 15:07 | 37.26761 | -2.85412 | 18630 ft | 307 kts | 167° |
| 2026-04-21 15:07 | 37.24718 | -2.84654 | 18310 ft | 306 kts | 167° |
| 2026-04-21 15:07 | 37.22675 | -2.83897 | 17974 ft | 305 kts | 167° |
| 2026-04-21 15:07 | 37.20648 | -2.83145 | 17622 ft | 303 kts | 167° |
| 2026-04-21 15:08 | 37.18630 | -2.82398 | 17302 ft | 301 kts | 167° |
| 2026-04-21 15:08 | 37.16635 | -2.81659 | 16988 ft | 298 kts | 167° |
| 2026-04-21 15:08 | 37.14653 | -2.80926 | 16667 ft | 295 kts | 167° |
| 2026-04-21 15:08 | 37.12717 | -2.80210 | 16382 ft | 293 kts | 167° |
| 2026-04-21 15:09 | 37.10772 | -2.79491 | 16078 ft | 290 kts | 167° |
| 2026-04-21 15:09 | 37.08846 | -2.78723 | 15731 ft | 294 kts | 160° |
| 2026-04-21 15:09 | 37.07129 | -2.77258 | 15305 ft | 306 kts | 136° |
| 2026-04-21 15:09 | 37.05949 | -2.75015 | 14988 ft | 315 kts | 114° |
| 2026-04-21 15:10 | 37.05495 | -2.72328 | 14652 ft | 319 kts | 92° |
| 2026-04-21 15:10 | 37.05582 | -2.69548 | 14344 ft | 321 kts | 88° |
| 2026-04-21 15:10 | 37.05694 | -2.66752 | 13975 ft | 322 kts | 88° |
| 2026-04-21 15:10 | 37.05817 | -2.63948 | 13608 ft | 322 kts | 87° |
| 2026-04-21 15:11 | 37.05947 | -2.61157 | 13258 ft | 321 kts | 87° |
| 2026-04-21 15:11 | 37.06080 | -2.58370 | 12882 ft | 320 kts | 87° |
| 2026-04-21 15:11 | 37.06213 | -2.55595 | 12544 ft | 318 kts | 87° |
| 2026-04-21 15:11 | 37.06345 | -2.52834 | 12207 ft | 317 kts | 87° |
| 2026-04-21 15:12 | 37.06476 | -2.50088 | 11866 ft | 316 kts | 87° |
| 2026-04-21 15:12 | 37.06605 | -2.47357 | 11537 ft | 314 kts | 87° |
| 2026-04-21 15:12 | 37.06735 | -2.44627 | 11205 ft | 313 kts | 87° |
| 2026-04-21 15:12 | 37.06863 | -2.41913 | 10895 ft | 311 kts | 86° |
| 2026-04-21 15:13 | 37.06988 | -2.39235 | 10677 ft | 305 kts | 87° |
| 2026-04-21 15:13 | 37.07110 | -2.36617 | 10474 ft | 299 kts | 87° |
| 2026-04-21 15:13 | 37.07230 | -2.34029 | 10232 ft | 296 kts | 87° |
| 2026-04-21 15:13 | 37.07348 | -2.31468 | 9952 ft | 295 kts | 87° |
| 2026-04-21 15:14 | 37.07466 | -2.28908 | 9612 ft | 295 kts | 87° |
| 2026-04-21 15:14 | 37.07583 | -2.26338 | 9241 ft | 295 kts | 88° |
| 2026-04-21 15:14 | 37.07700 | -2.23777 | 8878 ft | 295 kts | 88° |
| 2026-04-21 15:14 | 37.07816 | -2.21214 | 8554 ft | 294 kts | 88° |
| 2026-04-21 15:15 | 37.07794 | -2.18659 | 8159 ft | 293 kts | 102° |
| 2026-04-21 15:15 | 37.07109 | -2.16262 | 7685 ft | 294 kts | 120° |
| 2026-04-21 15:15 | 37.06052 | -2.14072 | 7242 ft | 294 kts | 136° |
| 2026-04-21 15:15 | 37.04362 | -2.12737 | 6841 ft | 287 kts | 162° |
| 2026-04-21 15:16 | 37.02536 | -2.11822 | 6541 ft | 279 kts | 158° |
| 2026-04-21 15:16 | 37.00845 | -2.10729 | 6281 ft | 267 kts | 153° |
| 2026-04-21 15:16 | 36.99313 | -2.09557 | 6094 ft | 254 kts | 150° |
| 2026-04-21 15:16 | 36.97861 | -2.08396 | 6011 ft | 236 kts | 151° |
| 2026-04-21 15:17 | 36.96531 | -2.07324 | 5927 ft | 219 kts | 150° |
| 2026-04-21 15:17 | 36.95245 | -2.06522 | 5842 ft | 203 kts | 173° |
| 2026-04-21 15:17 | 36.93901 | -2.06770 | 5675 ft | 190 kts | 211° |
| 2026-04-21 15:17 | 36.93024 | -2.07939 | 5570 ft | 187 kts | 242° |
| 2026-04-21 15:18 | 36.92390 | -2.09281 | 5437 ft | 181 kts | 227° |
| 2026-04-21 15:18 | 36.91459 | -2.10340 | 5189 ft | 179 kts | 219° |
| 2026-04-21 15:18 | 36.90652 | -2.11517 | 4847 ft | 182 kts | 245° |
| 2026-04-21 15:18 | 36.90267 | -2.13003 | 4511 ft | 181 kts | 251° |
| 2026-04-21 15:19 | 36.89905 | -2.14522 | 4076 ft | 183 kts | 251° |
| 2026-04-21 15:19 | 36.89538 | -2.16038 | 3655 ft | 184 kts | 252° |
| 2026-04-21 15:19 | 36.89157 | -2.17589 | 3182 ft | 188 kts | 252° |
| 2026-04-21 15:19 | 36.88774 | -2.19161 | 2792 ft | 188 kts | 252° |
| 2026-04-21 15:20 | 36.88406 | -2.20662 | 2415 ft | 174 kts | 252° |
| 2026-04-21 15:20 | 36.88058 | -2.22080 | 2086 ft | 166 kts | 253° |
| 2026-04-21 15:20 | 36.87726 | -2.23428 | 1816 ft | 162 kts | 254° |
| 2026-04-21 15:20 | 36.87401 | -2.24761 | 1612 ft | 160 kts | 253° |
| 2026-04-21 15:21 | 36.87076 | -2.26085 | 1491 ft | 160 kts | 254° |
| 2026-04-21 15:21 | 36.86749 | -2.27418 | 1320 ft | 161 kts | 253° |
| 2026-04-21 15:21 | 36.86422 | -2.28751 | 1151 ft | 161 kts | 254° |
| 2026-04-21 15:21 | 36.86126 | -2.30055 | 1079 ft | 151 kts | 253° |
| 2026-04-21 15:22 | 36.85823 | -2.31313 | 859 ft | 147 kts | 252° |
| 2026-04-21 15:22 | 36.85508 | -2.32495 | 544 ft | 141 kts | 250° |
| 2026-04-21 15:22 | 36.85232 | -2.33662 | 312 ft | 138 kts | 252° |
| 2026-04-21 15:22 | 36.84941 | -2.34810 | 167 ft | 142 kts | 251° |
| 2026-04-21 15:23 | 36.84652 | -2.35963 | 61 ft | 127 kts | 253° |
| 2026-04-21 15:23 | 36.84443 | -2.36822 | 61 ft | 81 kts | 253° |
| 2026-04-21 15:23 | 36.84289 | -2.37447 | 62 ft | 72 kts | 253° |
| 2026-04-21 15:23 | 36.84199 | -2.37916 | 65 ft | 29 kts | 271° |
| 2026-04-21 15:24 | 36.84229 | -2.38170 | 63 ft | 29 kts | 301° |
| 2026-04-21 15:24 | 36.84292 | -2.38165 | 65 ft | 10 kts | 78° |
| 2026-04-21 15:24 | 36.84311 | -2.38063 | 62 ft | 16 kts | 73° |
| 2026-04-21 15:24 | 36.84354 | -2.37886 | 62 ft | 27 kts | 73° |
| 2026-04-21 15:25 | 36.84417 | -2.37630 | 66 ft | 33 kts | 73° |
| 2026-04-21 15:25 | 36.84489 | -2.37501 | 69 ft | 16 kts | 351° |
| 2026-04-21 15:25 | 36.84528 | -2.37481 | 63 ft | 4 kts | 69° |
| 2026-04-21 15:25 | 36.84542 | -2.37432 | 68 ft | 8 kts | 66° |
| 2026-04-21 15:26 | 36.84578 | -2.37427 | 69 ft | 7 kts | 308° |
| 2026-04-21 15:26 | 36.84624 | -2.37467 | 64 ft | 7 kts | 20° |
| 2026-04-21 15:26 | 36.84621 | -2.37423 | 67 ft | 7 kts | 126° |
| 2026-04-21 15:26 | 36.84617 | -2.37415 | 67 ft | 0 kts | 123° |